createdAt,value
2023-04-05T00:01:55.655Z,8.10
2023-04-05T00:04:50.860Z,8.30
2023-04-05T00:07:38.624Z,8.20
2023-04-05T00:10:29.724Z,8.30
2023-04-05T00:13:17.640Z,8.40
2023-04-05T00:16:05.779Z,8.60
2023-04-05T00:18:54.074Z,8.70
2023-04-05T00:21:41.910Z,8.80
2023-04-05T00:24:30.965Z,8.80
2023-04-05T00:27:18.450Z,8.90
2023-04-05T00:30:07.201Z,8.90
2023-04-05T00:32:54.708Z,8.90
2023-04-05T00:35:42.303Z,8.90
2023-04-05T00:38:29.804Z,8.80
2023-04-05T00:41:17.552Z,8.80
2023-04-05T00:44:05.887Z,8.80
2023-04-05T00:46:53.575Z,8.70
2023-04-05T00:49:42.135Z,8.50
2023-04-05T00:52:31.110Z,8.60
2023-04-05T00:55:19.626Z,8.60
2023-04-05T00:58:09.426Z,8.70
2023-04-05T01:01:22.606Z,8.60
2023-04-05T01:04:11.924Z,8.40
2023-04-05T01:07:08.788Z,8.30
2023-04-05T01:10:01.118Z,8.30
2023-04-05T01:12:49.523Z,8.20
2023-04-05T01:15:37.029Z,8.40
2023-04-05T01:18:26.058Z,8.40
2023-04-05T01:21:21.027Z,8.30
2023-04-05T01:24:47.205Z,8.20
2023-04-05T01:28:32.023Z,8.10
2023-04-05T01:31:31.632Z,8.00
2023-04-05T01:34:40.630Z,8.20
2023-04-05T01:37:34.543Z,8.10
2023-04-05T01:40:23.882Z,8.00
2023-04-05T01:43:18.890Z,8.00
2023-04-05T01:46:06.616Z,8.10
2023-04-05T01:48:54.050Z,8.00
2023-04-05T01:51:42.249Z,8.10
2023-04-05T01:54:29.721Z,8.10
2023-04-05T01:57:17.225Z,8.00
2023-04-05T02:00:05.361Z,7.90
2023-04-05T02:02:53.009Z,7.90
2023-04-05T02:05:40.651Z,8.10
2023-04-05T02:08:28.149Z,8.10
2023-04-05T02:11:15.688Z,8.10
2023-04-05T02:14:04.416Z,8.00
2023-04-05T02:16:55.882Z,7.80
2023-04-05T02:19:46.418Z,7.60
2023-04-05T02:22:33.913Z,7.40
2023-04-05T02:25:21.735Z,7.30
2023-04-05T02:28:11.376Z,7.20
2023-04-05T02:30:59.406Z,7.00
2023-04-05T02:33:48.860Z,6.80
2023-04-05T02:36:37.154Z,6.70
2023-04-05T02:39:24.605Z,6.50
2023-04-05T02:42:12.040Z,6.50
2023-04-05T02:44:59.546Z,6.40
2023-04-05T02:47:47.178Z,6.50
2023-04-05T02:50:34.869Z,6.50
2023-04-05T02:53:22.531Z,6.50
2023-04-05T02:56:10.055Z,6.40
2023-04-05T02:58:57.580Z,6.40
2023-04-05T03:01:45.211Z,6.40
2023-04-05T03:04:34.652Z,6.30
2023-04-05T03:07:22.397Z,6.40
2023-04-05T03:10:09.915Z,6.30
2023-04-05T03:12:57.425Z,6.20
2023-04-05T03:15:44.982Z,6.20
2023-04-05T03:18:32.822Z,6.20
2023-04-05T03:21:21.455Z,6.10
2023-04-05T03:24:09.035Z,6.10
2023-04-05T03:26:56.769Z,6.10
2023-04-05T03:29:44.191Z,6.00
2023-04-05T03:32:31.686Z,6.00
2023-04-05T03:35:19.532Z,5.90
2023-04-05T03:38:07.845Z,5.90
2023-04-05T03:40:55.320Z,5.80
2023-04-05T03:43:42.820Z,5.80
2023-04-05T03:46:30.508Z,5.90
2023-04-05T03:49:18.014Z,5.90
2023-04-05T03:52:05.561Z,5.50
2023-04-05T03:54:53.078Z,5.80
2023-04-05T03:57:42.024Z,6.00
2023-04-05T04:00:29.770Z,6.10
2023-04-05T04:03:17.268Z,6.40
2023-04-05T04:06:06.718Z,6.50
2023-04-05T04:08:54.303Z,6.60
2023-04-05T04:11:41.850Z,6.70
2023-04-05T04:14:29.326Z,6.90
2023-04-05T04:17:37.590Z,6.70
2023-04-05T04:20:25.136Z,6.60
2023-04-05T04:23:14.713Z,6.80
2023-04-05T04:26:05.180Z,6.90
2023-04-05T04:28:53.600Z,7.00
2023-04-05T04:31:45.679Z,7.00
2023-04-05T04:34:34.713Z,7.00
2023-04-05T04:37:23.014Z,6.90
2023-04-05T04:40:12.639Z,7.00
2023-04-05T04:43:00.233Z,7.10
2023-04-05T04:45:50.310Z,7.10
2023-04-05T04:48:42.441Z,7.30
2023-04-05T04:51:29.968Z,7.20
2023-04-05T04:54:21.313Z,7.30
2023-04-05T04:57:08.754Z,7.40
2023-04-05T04:59:56.216Z,7.40
2023-04-05T05:02:44.425Z,7.40
2023-04-05T05:05:32.153Z,7.50
2023-04-05T05:08:21.501Z,7.60
2023-04-05T05:11:10.035Z,7.60
2023-04-05T05:13:57.492Z,7.80
2023-04-05T05:16:45.061Z,7.90
2023-04-05T05:19:32.599Z,8.30
2023-04-05T05:22:20.052Z,8.70
2023-04-05T05:25:10.058Z,9.30
2023-04-05T05:27:57.601Z,10.40
2023-04-05T05:30:45.451Z,11.20
2023-04-05T05:33:33.041Z,11.90
2023-04-05T05:36:20.488Z,12.20
2023-04-05T05:39:08.110Z,12.20
2023-04-05T05:41:55.616Z,11.70
2023-04-05T05:44:43.139Z,11.40
2023-04-05T05:47:30.832Z,11.50
2023-04-05T05:50:20.676Z,12.10
2023-04-05T05:53:08.270Z,12.40
2023-04-05T05:55:56.792Z,12.60
2023-04-05T05:58:44.196Z,11.60
2023-04-05T06:01:34.588Z,10.90
2023-04-05T06:04:22.304Z,10.50
2023-04-05T06:07:10.029Z,9.80
2023-04-05T06:09:57.536Z,9.50
2023-04-05T06:12:45.033Z,9.00
2023-04-05T06:15:32.746Z,8.80
2023-04-05T06:18:21.628Z,9.10
2023-04-05T06:21:09.133Z,9.00
2023-04-05T06:23:56.945Z,8.80
2023-04-05T06:26:44.406Z,9.40
2023-04-05T06:29:31.921Z,9.00
2023-04-05T06:32:19.329Z,9.70
2023-04-05T06:35:07.988Z,10.00
2023-04-05T06:37:55.475Z,10.20
2023-04-05T06:40:43.054Z,10.40
2023-04-05T06:43:31.442Z,10.10
2023-04-05T06:46:18.996Z,10.30
2023-04-05T06:49:06.741Z,10.50
2023-04-05T06:51:54.222Z,10.00
2023-04-05T06:54:41.682Z,10.60
2023-04-05T06:57:29.221Z,10.60
2023-04-05T07:00:17.677Z,10.30
2023-04-05T07:03:05.138Z,10.30
2023-04-05T07:05:56.967Z,10.60
2023-04-05T07:08:44.489Z,10.90
2023-04-05T07:11:33.014Z,10.90
2023-04-05T07:14:20.681Z,10.80
2023-04-05T07:17:08.070Z,11.10
2023-04-05T07:19:55.862Z,11.10
2023-04-05T07:22:43.489Z,11.20
2023-04-05T07:25:33.671Z,11.40
2023-04-05T07:28:21.359Z,11.40
2023-04-05T07:31:08.906Z,11.60
2023-04-05T07:33:58.192Z,11.60
2023-04-05T07:36:46.780Z,11.30
2023-04-05T07:39:34.442Z,11.70
2023-04-05T07:42:22.129Z,11.90
2023-04-05T07:45:10.620Z,11.90
2023-04-05T07:47:58.072Z,12.30
2023-04-05T07:50:47.953Z,12.50
2023-04-05T07:53:37.511Z,12.40
2023-04-05T07:56:24.983Z,12.10
2023-04-05T07:59:14.950Z,11.60
2023-04-05T08:02:12.325Z,12.40
2023-04-05T08:05:02.250Z,12.60
2023-04-05T08:07:49.755Z,12.80
2023-04-05T08:10:41.337Z,12.60
2023-04-05T08:13:29.248Z,12.50
2023-04-05T08:16:16.899Z,12.90
2023-04-05T08:19:04.387Z,13.40
2023-04-05T08:21:53.575Z,13.30
2023-04-05T08:24:41.101Z,13.60
2023-04-05T08:27:28.591Z,13.70
2023-04-05T08:30:16.733Z,12.80
2023-04-05T08:33:05.121Z,13.40
2023-04-05T08:35:53.247Z,13.20
2023-04-05T08:38:40.788Z,12.90
2023-04-05T08:41:37.455Z,13.20
2023-04-05T08:44:30.886Z,12.90
2023-04-05T08:47:20.815Z,13.00
2023-04-05T08:50:11.508Z,12.90
2023-04-05T08:52:59.041Z,13.50
2023-04-05T08:55:57.173Z,13.90
2023-04-05T08:59:10.941Z,14.20
2023-04-05T09:02:02.110Z,13.90
2023-04-05T09:04:51.509Z,14.20
2023-04-05T09:07:41.065Z,14.20
2023-04-05T09:10:29.830Z,14.20
2023-04-05T09:13:17.572Z,14.60
2023-04-05T09:16:06.114Z,14.50
2023-04-05T09:18:53.672Z,14.60
2023-04-05T09:22:01.639Z,14.10
2023-04-05T09:24:49.195Z,14.80
2023-04-05T09:27:53.567Z,15.00
2023-04-05T09:30:47.324Z,15.30
2023-04-05T09:33:36.001Z,14.60
2023-04-05T09:36:23.548Z,14.10
2023-04-05T09:39:11.196Z,14.10
2023-04-05T09:42:19.380Z,15.00
2023-04-05T09:45:07.630Z,15.70
2023-04-05T09:47:58.640Z,16.10
2023-04-05T09:50:46.316Z,16.20
2023-04-05T09:53:34.018Z,16.20
2023-04-05T09:56:21.724Z,16.20
2023-04-05T09:59:13.067Z,16.50
2023-04-05T10:02:00.822Z,16.00
2023-04-05T10:04:49.441Z,15.10
2023-04-05T10:07:38.399Z,14.30
2023-04-05T10:10:26.187Z,14.90
2023-04-05T10:13:15.892Z,15.00
2023-04-05T10:16:07.683Z,14.60
2023-04-05T10:18:55.997Z,15.10
2023-04-05T10:21:46.380Z,14.60
2023-04-05T10:24:49.764Z,14.80
2023-04-05T10:27:48.650Z,14.30
2023-04-05T10:30:47.622Z,14.40
2023-04-05T10:33:46.482Z,14.60
2023-04-05T10:37:02.194Z,14.00
2023-04-05T10:39:50.410Z,14.20
2023-04-05T10:42:46.650Z,14.70
2023-04-05T10:45:38.837Z,14.90
2023-04-05T10:49:02.340Z,15.40
2023-04-05T10:51:52.466Z,15.50
2023-04-05T10:54:41.804Z,15.50
2023-04-05T10:57:30.245Z,15.10
2023-04-05T11:00:19.342Z,15.20
2023-04-05T11:03:07.875Z,15.80
2023-04-05T11:06:23.194Z,16.90
2023-04-05T11:09:22.882Z,17.00
2023-04-05T11:12:10.428Z,18.00
2023-04-05T11:15:30.479Z,18.20
2023-04-05T11:18:18.181Z,17.00
2023-04-05T11:21:09.047Z,17.40
2023-04-05T11:24:19.058Z,17.40
2023-04-05T11:27:10.775Z,17.30
2023-04-05T11:30:01.359Z,17.20
2023-04-05T11:32:49.091Z,17.60
2023-04-05T11:35:40.214Z,16.50
2023-04-05T11:38:27.922Z,16.10
2023-04-05T11:41:18.157Z,16.70
2023-04-05T11:44:14.162Z,16.10
2023-04-05T11:47:05.220Z,16.80
2023-04-05T11:49:53.168Z,16.70
2023-04-05T11:52:40.876Z,17.00
2023-04-05T11:55:28.347Z,16.70
2023-04-05T11:58:17.886Z,17.20
2023-04-05T12:01:08.257Z,17.60
2023-04-05T12:03:57.554Z,18.00
2023-04-05T12:06:45.512Z,18.30
2023-04-05T12:09:33.212Z,18.50
2023-04-05T12:12:21.202Z,18.70
2023-04-05T12:15:14.723Z,18.40
2023-04-05T12:18:02.559Z,18.50
2023-04-05T12:20:50.327Z,18.90
2023-04-05T12:23:38.597Z,18.70
2023-04-05T12:26:26.949Z,18.50
2023-04-05T12:29:14.636Z,18.40
2023-04-05T12:32:04.722Z,18.50
2023-04-05T12:34:57.893Z,18.10
2023-04-05T12:37:46.723Z,17.80
2023-04-05T12:40:41.164Z,18.00
2023-04-05T12:43:43.508Z,17.90
2023-04-05T12:47:07.603Z,17.40
2023-04-05T12:49:56.155Z,17.10
2023-04-05T12:52:58.018Z,17.30
2023-04-05T12:55:51.227Z,17.30
2023-04-05T12:58:40.245Z,16.60
2023-04-05T13:01:27.916Z,16.40
2023-04-05T13:04:16.862Z,15.50
2023-04-05T13:07:04.644Z,16.60
2023-04-05T13:09:52.420Z,16.80
2023-04-05T13:12:40.220Z,16.70
2023-04-05T13:15:27.748Z,16.10
2023-04-05T13:18:15.854Z,17.10
2023-04-05T13:21:07.789Z,17.40
2023-04-05T13:23:55.399Z,17.60
2023-04-05T13:26:43.003Z,17.70
2023-04-05T13:29:30.724Z,18.20
2023-04-05T13:32:18.211Z,18.50
2023-04-05T13:35:06.686Z,18.20
2023-04-05T13:37:54.238Z,18.00
2023-04-05T13:40:42.646Z,18.10
2023-04-05T13:43:31.541Z,18.00
2023-04-05T13:46:19.352Z,18.50
2023-04-05T13:49:06.905Z,18.50
2023-04-05T13:51:54.736Z,18.30
2023-04-05T13:54:42.512Z,18.70
2023-04-05T13:57:29.974Z,18.60
2023-04-05T14:00:18.028Z,18.00
2023-04-05T14:03:06.748Z,18.20
2023-04-05T14:05:55.493Z,17.90
2023-04-05T14:08:43.601Z,17.80
2023-04-05T14:11:32.672Z,18.00
2023-04-05T14:14:20.519Z,17.00
2023-04-05T14:17:08.244Z,17.00
2023-04-05T14:19:55.872Z,17.60
2023-04-05T14:22:43.545Z,17.40
2023-04-05T14:25:31.687Z,17.50
2023-04-05T14:28:19.213Z,17.70
2023-04-05T14:31:06.792Z,17.50
2023-04-05T14:33:54.308Z,17.80
2023-04-05T14:36:42.048Z,17.80
2023-04-05T14:39:29.642Z,17.50
2023-04-05T14:42:17.301Z,17.40
2023-04-05T14:45:05.279Z,17.40
2023-04-05T14:47:53.431Z,17.50
2023-04-05T14:50:41.235Z,17.30
2023-04-05T14:53:28.840Z,17.70
2023-04-05T14:56:16.461Z,17.30
2023-04-05T14:59:04.004Z,17.40
2023-04-05T15:01:51.966Z,17.70
2023-04-05T15:04:41.400Z,17.40
2023-04-05T15:07:29.161Z,17.30
2023-04-05T15:10:18.569Z,17.30
2023-04-05T15:13:06.301Z,17.70
2023-04-05T15:15:54.128Z,17.70
2023-04-05T15:18:41.734Z,17.70
2023-04-05T15:21:29.765Z,17.80
2023-04-05T15:24:17.308Z,17.80
2023-04-05T15:27:04.913Z,17.90
2023-04-05T15:29:52.415Z,17.70
2023-04-05T15:32:40.090Z,17.70
2023-04-05T15:35:27.841Z,17.60
2023-04-05T15:38:15.565Z,17.70
2023-04-05T15:41:03.371Z,17.80
2023-04-05T15:43:50.960Z,17.60
2023-04-05T15:46:38.663Z,17.70
2023-04-05T15:49:26.285Z,17.60
2023-04-05T15:52:15.646Z,17.70
2023-04-05T15:55:04.340Z,17.60
2023-04-05T15:57:54.779Z,17.70
2023-04-05T16:00:42.467Z,17.20
2023-04-05T16:03:31.909Z,17.30
2023-04-05T16:06:19.562Z,17.20
2023-04-05T16:09:07.265Z,17.10
2023-04-05T16:11:54.772Z,17.20
2023-04-05T16:14:42.479Z,16.90
2023-04-05T16:17:30.061Z,16.90
2023-04-05T16:20:17.786Z,16.50
2023-04-05T16:23:06.300Z,16.50
2023-04-05T16:25:53.967Z,16.50
2023-04-05T16:28:41.744Z,16.30
2023-04-05T16:31:29.702Z,16.10
2023-04-05T16:34:17.384Z,16.00
2023-04-05T16:37:05.048Z,15.90
2023-04-05T16:39:52.743Z,15.80
2023-04-05T16:42:40.431Z,15.80
2023-04-05T16:45:28.931Z,15.70
2023-04-05T16:48:16.579Z,15.60
2023-04-05T16:51:06.867Z,15.50
2023-04-05T16:53:55.443Z,15.30
2023-04-05T16:56:42.974Z,15.20
2023-04-05T16:59:31.034Z,15.10
2023-04-05T17:02:18.858Z,14.90
2023-04-05T17:05:07.469Z,14.80
2023-04-05T17:07:55.273Z,14.70
2023-04-05T17:10:42.743Z,14.50
2023-04-05T17:13:30.495Z,14.40
2023-04-05T17:16:18.241Z,14.30
2023-04-05T17:19:06.029Z,14.10
2023-04-05T17:21:53.633Z,13.90
2023-04-05T17:24:41.154Z,13.80
2023-04-05T17:27:29.016Z,13.60
2023-04-05T17:30:17.278Z,13.50
2023-04-05T17:33:05.107Z,13.30
2023-04-05T17:35:53.092Z,13.10
2023-04-05T17:38:40.699Z,12.90
2023-04-05T17:41:28.249Z,12.70
2023-04-05T17:44:15.895Z,12.50
2023-04-05T17:47:09.051Z,12.40
2023-04-05T17:49:57.368Z,12.20
2023-04-05T17:52:44.980Z,12.00
2023-04-05T17:55:35.741Z,11.90
2023-04-05T17:58:23.255Z,11.70
2023-04-05T18:01:14.680Z,11.60
2023-04-05T18:04:02.492Z,11.50
2023-04-05T18:06:50.824Z,11.40
2023-04-05T18:09:41.908Z,11.30
2023-04-05T18:12:29.546Z,11.10
2023-04-05T18:15:18.485Z,11.00
2023-04-05T18:18:07.159Z,10.90
2023-04-05T18:20:56.486Z,10.70
2023-04-05T18:23:44.038Z,10.60
2023-04-05T18:26:32.133Z,10.50
2023-04-05T18:29:19.720Z,10.40
2023-04-05T18:32:08.455Z,10.30
2023-04-05T18:34:56.080Z,10.10
2023-04-05T18:37:43.683Z,10.00
2023-04-05T18:40:31.476Z,10.20
2023-04-05T18:43:18.901Z,10.30
2023-04-05T18:46:06.556Z,10.50
2023-04-05T18:48:57.938Z,10.60
2023-04-05T18:51:46.063Z,10.60
2023-04-05T18:54:33.554Z,10.80
2023-04-05T18:57:21.378Z,10.80
2023-04-05T19:00:09.498Z,10.60
2023-04-05T19:02:57.767Z,10.40
2023-04-05T19:05:53.255Z,10.30
2023-04-05T19:08:41.402Z,10.20
2023-04-05T19:11:29.144Z,10.40
2023-04-05T19:14:17.282Z,10.40
2023-04-05T19:17:09.303Z,10.50
2023-04-05T19:19:57.080Z,10.70
2023-04-05T19:22:47.089Z,11.20
2023-04-05T19:25:34.633Z,11.40
2023-04-05T19:28:22.471Z,11.50
2023-04-05T19:31:10.886Z,11.60
2023-04-05T19:33:59.675Z,11.50
2023-04-05T19:36:47.307Z,11.50
2023-04-05T19:39:37.638Z,11.50
2023-04-05T19:42:25.345Z,11.40
2023-04-05T19:45:22.689Z,11.60
2023-04-05T19:48:35.580Z,11.60
2023-04-05T19:51:28.809Z,11.70
2023-04-05T19:54:20.801Z,11.70
2023-04-05T19:57:09.931Z,11.40
2023-04-05T19:59:57.806Z,11.40
2023-04-05T20:02:45.515Z,11.30
2023-04-05T20:05:48.420Z,11.30
2023-04-05T20:08:42.497Z,11.20
2023-04-05T20:11:31.154Z,11.20
2023-04-05T20:14:41.259Z,11.10
2023-04-05T20:17:28.933Z,11.00
2023-04-05T20:20:17.684Z,10.80
2023-04-05T20:23:08.690Z,10.80
2023-04-05T20:25:59.858Z,10.80
2023-04-05T20:28:56.418Z,10.70
2023-04-05T20:31:44.710Z,10.50
2023-04-05T20:34:36.692Z,10.50
2023-04-05T20:37:24.244Z,10.50
2023-04-05T20:40:12.870Z,10.50
2023-04-05T20:43:00.938Z,10.40
2023-04-05T20:45:48.587Z,10.60
2023-04-05T20:48:37.222Z,10.60
2023-04-05T20:51:25.213Z,10.60
2023-04-05T20:54:13.611Z,10.60
2023-04-05T20:57:01.277Z,10.60
2023-04-05T20:59:48.815Z,10.50
2023-04-05T21:02:37.211Z,10.60
2023-04-05T21:05:24.964Z,10.40
2023-04-05T21:08:13.078Z,10.70
2023-04-05T21:11:00.863Z,10.60
2023-04-05T21:13:48.678Z,10.60
2023-04-05T21:16:36.244Z,10.50
2023-04-05T21:19:24.175Z,10.40
2023-04-05T21:22:11.843Z,10.20
2023-04-05T21:24:59.435Z,10.00
2023-04-05T21:27:47.177Z,10.00
2023-04-05T21:30:34.715Z,10.00
2023-04-05T21:33:22.575Z,10.00
2023-04-05T21:36:10.193Z,10.20
2023-04-05T21:38:57.670Z,10.20
2023-04-05T21:41:45.196Z,10.00
2023-04-05T21:44:32.760Z,9.90
2023-04-05T21:47:20.514Z,9.90
2023-04-05T21:50:09.271Z,9.90
2023-04-05T21:52:56.820Z,9.80
2023-04-05T21:55:44.386Z,9.50
2023-04-05T21:58:31.861Z,9.40
2023-04-05T22:01:19.555Z,9.20
2023-04-05T22:04:07.079Z,9.10
2023-04-05T22:06:55.085Z,8.90
2023-04-05T22:09:43.514Z,8.80
2023-04-05T22:12:31.186Z,8.70
2023-04-05T22:15:18.718Z,8.70
2023-04-05T22:18:06.790Z,8.60
2023-04-05T22:20:54.471Z,8.50
2023-04-05T22:23:43.088Z,8.30
2023-04-05T22:26:32.650Z,8.30
2023-04-05T22:29:23.649Z,8.20
2023-04-05T22:32:11.542Z,8.10
2023-04-05T22:34:59.137Z,8.00
2023-04-05T22:37:46.669Z,8.00
2023-04-05T22:40:34.439Z,8.00
2023-04-05T22:43:22.006Z,8.00
2023-04-05T22:46:10.577Z,8.10
2023-04-05T22:48:58.181Z,7.90
2023-04-05T22:51:45.721Z,7.90
2023-04-05T22:54:33.234Z,7.90
2023-04-05T22:57:20.847Z,7.80
2023-04-05T23:00:09.234Z,7.90
2023-04-05T23:02:56.908Z,7.90
2023-04-05T23:05:44.635Z,7.90
2023-04-05T23:08:33.578Z,7.90
2023-04-05T23:11:21.563Z,7.90
2023-04-05T23:14:09.403Z,7.90
2023-04-05T23:16:57.272Z,7.90
2023-04-05T23:19:44.880Z,7.90
2023-04-05T23:22:33.283Z,8.00
2023-04-05T23:25:20.960Z,7.90
2023-04-05T23:28:08.791Z,8.00
2023-04-05T23:30:56.508Z,8.00
2023-04-05T23:33:44.118Z,8.00
2023-04-05T23:36:32.728Z,7.90
2023-04-05T23:39:20.412Z,7.90
2023-04-05T23:42:08.496Z,7.90
2023-04-05T23:44:56.555Z,7.90
2023-04-05T23:47:44.235Z,7.90
2023-04-05T23:50:31.842Z,7.90
2023-04-05T23:53:19.453Z,7.90
2023-04-05T23:56:07.287Z,7.80
2023-04-05T23:58:55.143Z,7.80
